Fallon Naval Air Station /Van Voorhis Field
KNFL : now visible

Airfield :











YOU CAN JOIN US ON...

 
LOGIN :

Register | Disclaimer

   EN    FR    IT 

 









Legend :    VFR   Marginal VFR   IFR   Intensive IFR   Very Intensive IFR
Visi :
Ceiling :
>= 8 km
>= 3000ft
5 to 8 km
1000 to 3000 ft
1500m to 5 km
500 to 1000 ft
800 to 1500m
200 to 500 ft
< 800m
< 200 ft
Symbols :   Thunderstorms  Fog  Heavy snow  Heavy precipitations  Wind > 20 kt






- Airport Elevation : 3934 ft


KNFL - Fallon Naval Air Station /Van Voorhis Field

CURRENT METAR :
  • 041423Z 00000KT 10SM SCT250 M11/M15 A3044 RMK AO2 T11111150

EXPIRED METARs :
  • 041356Z 20003KT 10SM CLR M12/M16 A3044 RMK AO2 SLP262 T11171156
  • 041256Z 00000KT 10SM CLR M11/M14 A3043 RMK AO2 SLP258 T11061144
  • 041156Z 21003KT 10SM CLR M09/M14 A3042 RMK AO2 SLP256 T10891144 11033 21111 57001

TAF TAF KNFL
Valid from the 04 at 07:00 until the 05 at 07:00 UTC


0407/0507 VRB06KT 999 FEW250 QNH3033INS AUTOMATED SENSOR METWATCH 0408 TIL 0414 TM11/0413Z T09/0423Z FS30136
KZOA FIR / North America



MET'MAP, your aeronautical weather chart ! - Copyright ORBIFLY December 2007 - Disclaimer

ORBIFLY MET'MAP TEAM :

Programming & Development : Alexandra Zaïnal
Concept & original design : Baudouin d'Aumeries
Assistance for programming : Marc-Olivier Méhu
Technical & hardware support : Manuel Goepfert

Contact : metmap@orbifly.com




SOURCES & CREDITS :

   NOAA       Earth
Advisory